createdAt,value
2023-01-17T00:01:44.677Z,2.73
2023-01-17T00:04:47.506Z,3.00
2023-01-17T00:10:42.421Z,2.88
2023-01-17T00:13:37.827Z,2.63
2023-01-17T00:16:23.017Z,2.67
2023-01-17T00:19:26.775Z,2.60
2023-01-17T00:22:39.451Z,2.80
2023-01-17T00:25:56.631Z,2.22
2023-01-17T00:28:43.421Z,2.63
2023-01-17T00:31:28.689Z,2.30
2023-01-17T00:34:14.089Z,2.40
2023-01-17T00:36:59.375Z,2.87
2023-01-17T00:39:44.814Z,2.30
2023-01-17T00:42:30.418Z,2.40
2023-01-17T00:45:34.227Z,2.40
2023-01-17T00:48:38.010Z,2.40
2023-01-17T00:57:50.204Z,2.38
2023-01-17T01:00:53.970Z,2.50
2023-01-17T01:03:57.671Z,2.67
2023-01-17T01:07:01.354Z,2.40
2023-01-17T01:13:09.079Z,2.17
2023-01-17T01:19:17.166Z,2.30
2023-01-17T01:22:20.947Z,2.33
2023-01-17T01:25:25.255Z,2.13
2023-01-17T01:28:31.614Z,2.10
2023-01-17T01:31:35.780Z,2.50
2023-01-17T01:37:06.279Z,2.30
2023-01-17T01:39:51.489Z,2.33
2023-01-17T01:42:36.900Z,2.10
2023-01-17T01:45:32.692Z,2.00
2023-01-17T01:48:33.821Z,2.10
2023-01-17T01:51:24.023Z,2.23
2023-01-17T01:54:15.305Z,1.70
2023-01-17T01:57:03.684Z,1.90
2023-01-17T01:59:54.727Z,2.10
2023-01-17T02:02:42.994Z,2.13
2023-01-17T02:05:28.728Z,2.10
2023-01-17T02:08:20.544Z,1.87
2023-01-17T02:11:06.950Z,2.10
2023-01-17T02:13:52.353Z,2.00
2023-01-17T02:16:46.554Z,2.10
2023-01-17T02:20:11.906Z,2.20
2023-01-17T02:23:20.225Z,1.80
2023-01-17T02:26:05.630Z,1.90
2023-01-17T02:29:11.581Z,1.87
2023-01-17T02:32:38.039Z,2.10
2023-01-17T02:36:04.167Z,2.07
2023-01-17T02:39:05.181Z,1.60
2023-01-17T02:42:19.743Z,1.93
2023-01-17T02:45:05.687Z,1.97
2023-01-17T02:47:51.042Z,1.90
2023-01-17T02:51:15.177Z,1.70
2023-01-17T02:57:03.579Z,1.73
2023-01-17T03:00:01.321Z,1.70
2023-01-17T03:03:02.202Z,1.80
2023-01-17T03:05:58.451Z,1.83
2023-01-17T03:08:45.937Z,1.70
2023-01-17T03:11:31.576Z,1.80
2023-01-17T03:14:16.839Z,1.50
2023-01-17T03:17:02.171Z,1.40
2023-01-17T03:19:47.407Z,1.67
2023-01-17T03:22:32.635Z,1.57
2023-01-17T03:25:17.896Z,1.97
2023-01-17T03:28:03.461Z,1.50
2023-01-17T03:30:49.043Z,1.37
2023-01-17T03:33:34.172Z,1.50
2023-01-17T03:36:20.349Z,1.70
2023-01-17T03:39:05.487Z,1.60
2023-01-17T03:41:51.052Z,2.07
2023-01-17T03:44:37.595Z,1.40
2023-01-17T03:47:22.841Z,1.33
2023-01-17T03:50:08.718Z,1.47
2023-01-17T03:52:54.056Z,1.70
2023-01-17T03:55:39.259Z,1.77
2023-01-17T03:58:24.669Z,1.70
2023-01-17T04:01:10.951Z,1.70
2023-01-17T04:03:56.297Z,1.70
2023-01-17T04:06:42.501Z,1.67
2023-01-17T04:09:27.939Z,1.60
2023-01-17T04:12:13.370Z,1.70
2023-01-17T04:14:58.658Z,1.50
2023-01-17T04:17:44.006Z,1.60
2023-01-17T04:20:33.273Z,1.20
2023-01-17T04:23:18.869Z,1.50
2023-01-17T04:26:04.615Z,1.27
2023-01-17T04:28:50.140Z,1.70
2023-01-17T04:31:35.493Z,1.50
2023-01-17T04:34:20.879Z,1.70
2023-01-17T04:37:06.061Z,1.63
2023-01-17T04:39:51.353Z,1.53
2023-01-17T04:42:37.192Z,1.60
2023-01-17T04:45:22.344Z,1.60
2023-01-17T04:48:08.863Z,1.60
2023-01-17T04:51:01.372Z,1.70
2023-01-17T04:53:46.491Z,2.00
2023-01-17T04:56:31.935Z,1.70
2023-01-17T04:59:17.279Z,1.80
2023-01-17T05:02:02.850Z,1.57
2023-01-17T05:04:49.577Z,1.77
2023-01-17T05:07:35.796Z,1.80
2023-01-17T05:10:22.037Z,1.40
2023-01-17T05:13:07.475Z,1.60
2023-01-17T05:15:52.794Z,1.90
2023-01-17T05:18:38.238Z,1.70
2023-01-17T05:21:23.926Z,1.67
2023-01-17T05:24:09.204Z,1.63
2023-01-17T05:26:54.879Z,1.70
2023-01-17T05:29:40.616Z,1.47
2023-01-17T05:32:26.174Z,1.23
2023-01-17T05:35:11.454Z,1.47
2023-01-17T05:37:56.943Z,1.33
2023-01-17T05:40:42.274Z,1.30
2023-01-17T05:43:28.438Z,1.43
2023-01-17T05:46:13.690Z,1.37
2023-01-17T05:48:59.084Z,1.83
2023-01-17T05:51:44.573Z,2.10
2023-01-17T05:54:29.775Z,1.80
2023-01-17T05:57:15.923Z,1.60
2023-01-17T06:00:01.478Z,1.90
2023-01-17T06:02:47.520Z,1.73
2023-01-17T06:05:32.762Z,1.70
2023-01-17T06:08:18.216Z,1.53
2023-01-17T06:11:03.575Z,1.83
2023-01-17T06:13:49.141Z,1.50
2023-01-17T06:16:34.539Z,1.77
2023-01-17T06:19:19.828Z,1.53
2023-01-17T06:22:05.466Z,1.90
2023-01-17T06:24:51.071Z,1.50
2023-01-17T06:27:36.392Z,1.63
2023-01-17T06:30:21.842Z,1.70
2023-01-17T06:33:07.346Z,1.53
2023-01-17T06:35:53.238Z,1.90
2023-01-17T06:38:38.654Z,1.70
2023-01-17T06:41:25.890Z,1.63
2023-01-17T06:49:34.587Z,1.93
2023-01-17T06:52:19.100Z,1.77
2023-01-17T06:55:03.991Z,2.17
2023-01-17T06:57:49.950Z,1.87
2023-01-17T07:00:35.313Z,2.60
2023-01-17T07:03:25.405Z,2.23
2023-01-17T07:14:00.192Z,1.90
2023-01-17T07:16:45.392Z,1.80
2023-01-17T07:19:30.012Z,1.77
2023-01-17T07:22:15.216Z,1.93
2023-01-17T07:25:00.646Z,1.70
2023-01-17T07:27:46.322Z,1.70
2023-01-17T07:30:31.575Z,1.97
2023-01-17T07:33:17.262Z,1.80
2023-01-17T07:36:07.667Z,1.87
2023-01-17T07:38:53.156Z,1.83
2023-01-17T07:41:41.380Z,2.07
2023-01-17T07:44:27.036Z,1.90
2023-01-17T07:47:12.497Z,1.87
2023-01-17T07:49:57.730Z,2.00
2023-01-17T07:52:42.922Z,1.77
2023-01-17T07:55:28.311Z,2.27
2023-01-17T07:58:15.020Z,1.80
2023-01-17T08:01:08.753Z,1.77
2023-01-17T08:03:54.964Z,1.73
2023-01-17T08:06:43.605Z,1.70
2023-01-17T08:09:29.135Z,1.57
2023-01-17T08:12:14.452Z,1.60
2023-01-17T08:14:59.933Z,1.77
2023-01-17T08:17:49.469Z,1.70
2023-01-17T08:20:34.916Z,2.10
2023-01-17T08:23:21.104Z,1.80
2023-01-17T08:26:06.582Z,1.80
2023-01-17T08:28:57.137Z,1.80
2023-01-17T08:31:42.824Z,1.70
2023-01-17T08:34:28.129Z,1.63
2023-01-17T08:37:13.788Z,1.50
2023-01-17T08:39:58.854Z,1.60
2023-01-17T08:42:44.275Z,1.50
2023-01-17T08:45:29.976Z,1.53
2023-01-17T08:48:15.532Z,2.00
2023-01-17T08:51:02.753Z,1.60
2023-01-17T08:53:48.629Z,1.60
2023-01-17T08:56:34.098Z,1.40
2023-01-17T08:59:19.814Z,1.50
2023-01-17T09:02:14.780Z,1.40
2023-01-17T09:05:00.841Z,1.63
2023-01-17T09:07:46.237Z,1.40
2023-01-17T09:10:31.648Z,1.67
2023-01-17T09:13:16.745Z,1.50
2023-01-17T09:16:02.227Z,1.30
2023-01-17T09:18:47.899Z,1.20
2023-01-17T09:21:33.088Z,1.40
2023-01-17T09:24:18.660Z,1.30
2023-01-17T09:27:04.417Z,1.53
2023-01-17T09:29:50.009Z,1.33
2023-01-17T09:32:35.335Z,1.30
2023-01-17T09:35:20.645Z,1.60
2023-01-17T09:38:06.653Z,1.37
2023-01-17T09:40:51.983Z,1.10
2023-01-17T09:43:48.351Z,1.20
2023-01-17T09:46:44.875Z,1.37
2023-01-17T09:49:47.366Z,1.30
2023-01-17T09:52:32.606Z,1.37
2023-01-17T09:55:19.387Z,1.23
2023-01-17T09:58:17.931Z,1.10
2023-01-17T10:01:06.314Z,1.53
2023-01-17T10:04:21.690Z,1.20
2023-01-17T10:07:43.514Z,1.57
2023-01-17T10:11:02.901Z,1.30
2023-01-17T10:14:03.715Z,1.10
2023-01-17T10:17:01.005Z,1.20
2023-01-17T10:20:01.456Z,1.20
2023-01-17T10:22:54.285Z,1.30
2023-01-17T10:25:43.021Z,0.90
2023-01-17T10:28:42.778Z,1.30
2023-01-17T10:31:56.873Z,1.10
2023-01-17T10:34:52.868Z,1.00
2023-01-17T10:37:44.163Z,1.50
2023-01-17T10:40:40.942Z,1.30
2023-01-17T10:43:48.735Z,1.20
2023-01-17T10:46:41.352Z,1.30
2023-01-17T10:49:28.532Z,1.33
2023-01-17T10:52:33.066Z,1.17
2023-01-17T10:55:37.432Z,1.20
2023-01-17T10:58:24.922Z,1.00
2023-01-17T11:01:19.772Z,1.13
2023-01-17T11:04:16.654Z,1.30
2023-01-17T11:07:20.348Z,1.10
2023-01-17T11:10:06.247Z,1.07
2023-01-17T11:12:52.017Z,0.90
2023-01-17T11:15:39.738Z,0.90
2023-01-17T11:18:29.144Z,1.03
2023-01-17T11:21:23.302Z,1.00
2023-01-17T11:24:12.331Z,0.90
2023-01-17T11:26:58.460Z,1.00
2023-01-17T11:29:43.571Z,1.00
2023-01-17T11:32:32.226Z,1.00
2023-01-17T11:35:45.233Z,0.90
2023-01-17T11:38:30.823Z,1.00
2023-01-17T11:41:21.954Z,1.00
2023-01-17T11:44:29.334Z,1.20
2023-01-17T11:47:19.348Z,0.90
2023-01-17T11:50:24.057Z,1.10
2023-01-17T11:53:24.495Z,1.20
2023-01-17T11:56:18.415Z,0.90
2023-01-17T11:59:17.867Z,1.00
2023-01-17T12:02:37.199Z,0.80
2023-01-17T12:05:56.499Z,1.00
2023-01-17T12:08:54.286Z,0.90
2023-01-17T12:12:30.161Z,1.07
2023-01-17T12:15:51.965Z,1.00
2023-01-17T12:18:52.567Z,1.20
2023-01-17T12:21:43.788Z,1.00
2023-01-17T12:24:47.627Z,0.73
2023-01-17T12:27:57.806Z,0.90
2023-01-17T12:31:01.730Z,0.83
2023-01-17T12:33:59.130Z,1.08
2023-01-17T12:36:57.319Z,0.60
2023-01-17T12:39:51.787Z,0.90
2023-01-17T12:42:43.176Z,0.90
2023-01-17T12:45:45.578Z,0.90
2023-01-17T12:48:36.856Z,0.82
2023-01-17T12:51:29.399Z,1.00
2023-01-17T12:54:38.440Z,0.60
2023-01-17T12:57:37.887Z,0.83
2023-01-17T13:00:29.697Z,0.80
2023-01-17T13:03:25.973Z,0.70
2023-01-17T13:06:22.190Z,0.70
2023-01-17T13:09:13.668Z,0.83
2023-01-17T13:12:06.813Z,0.73
2023-01-17T13:14:52.329Z,1.00
2023-01-17T13:17:56.385Z,0.70
2023-01-17T13:25:40.596Z,0.80
2023-01-17T13:29:25.391Z,0.80
2023-01-17T13:32:14.038Z,0.87
2023-01-17T13:35:11.444Z,0.97
2023-01-17T13:38:21.404Z,1.00
2023-01-17T13:49:46.177Z,0.80
2023-01-17T13:52:33.421Z,0.70
2023-01-17T13:55:50.887Z,1.00
2023-01-17T13:59:02.626Z,0.77
2023-01-17T14:01:52.359Z,0.80
2023-01-17T14:05:15.940Z,0.90
2023-01-17T14:08:06.133Z,0.90
2023-01-17T14:11:07.948Z,0.90
2023-01-17T14:16:40.767Z,0.90
2023-01-17T14:19:26.947Z,0.70
2023-01-17T14:22:18.549Z,0.80
2023-01-17T14:25:10.087Z,0.70
2023-01-17T14:28:01.212Z,0.80
2023-01-17T14:30:48.690Z,1.00
2023-01-17T14:33:40.082Z,0.80
2023-01-17T14:36:33.231Z,0.80
2023-01-17T14:39:22.968Z,0.70
2023-01-17T14:42:13.527Z,1.00
2023-01-17T14:45:08.957Z,0.80
2023-01-17T14:47:56.729Z,0.90
2023-01-17T14:50:44.331Z,0.80
2023-01-17T14:53:31.455Z,0.73
2023-01-17T14:56:18.091Z,1.00
2023-01-17T14:59:13.077Z,0.93
2023-01-17T15:02:07.630Z,0.90
2023-01-17T15:04:55.387Z,0.80
2023-01-17T15:07:43.167Z,1.03
2023-01-17T15:10:31.862Z,0.90
2023-01-17T15:13:29.804Z,1.00
2023-01-17T15:19:14.959Z,0.70
2023-01-17T15:22:00.292Z,0.95
2023-01-17T15:24:46.967Z,1.20
2023-01-17T15:27:33.075Z,1.20
2023-01-17T15:30:19.365Z,1.20
2023-01-17T15:33:04.578Z,2.30
2023-01-17T15:35:49.723Z,4.43
2023-01-17T15:38:41.046Z,6.90
2023-01-17T15:41:31.296Z,9.10
2023-01-17T15:44:31.160Z,13.57
2023-01-17T15:47:40.076Z,20.97
2023-01-17T15:53:35.496Z,19.57
2023-01-17T15:56:32.286Z,16.47
2023-01-17T15:59:30.816Z,15.43
2023-01-17T16:02:55.870Z,14.03
2023-01-17T16:05:43.972Z,13.17
2023-01-17T16:13:09.632Z,11.17
2023-01-17T16:16:10.052Z,14.57
2023-01-17T16:19:00.331Z,24.60
2023-01-17T16:21:47.395Z,25.67
2023-01-17T16:24:31.790Z,26.07
2023-01-17T16:27:20.684Z,22.87
2023-01-17T16:30:06.489Z,20.60
2023-01-17T16:32:52.241Z,20.13
2023-01-17T16:35:39.603Z,19.53
2023-01-17T16:38:25.610Z,18.23
2023-01-17T16:41:12.387Z,16.80
2023-01-17T16:44:05.479Z,17.23
2023-01-17T16:46:50.970Z,15.25
2023-01-17T16:49:36.821Z,13.03
2023-01-17T16:52:22.156Z,14.07
2023-01-17T16:55:12.338Z,13.13
2023-01-17T16:58:00.742Z,12.63
2023-01-17T17:00:47.404Z,13.03
2023-01-17T17:03:32.976Z,12.00
2023-01-17T17:06:19.709Z,11.97
2023-01-17T17:09:05.702Z,13.27
2023-01-17T17:11:52.210Z,12.83
2023-01-17T17:14:37.763Z,11.50
2023-01-17T17:17:23.172Z,11.43
2023-01-17T17:20:11.969Z,11.47
2023-01-17T17:22:57.682Z,11.67
2023-01-17T17:25:42.888Z,11.27
2023-01-17T17:28:28.344Z,11.47
2023-01-17T17:31:13.864Z,10.73
2023-01-17T17:34:00.911Z,10.23
2023-01-17T17:36:46.504Z,10.63
2023-01-17T17:39:32.139Z,9.93
2023-01-17T17:42:19.680Z,10.33
2023-01-17T17:45:05.462Z,11.07
2023-01-17T17:47:52.815Z,9.77
2023-01-17T17:50:39.128Z,10.60
2023-01-17T17:53:26.070Z,9.70
2023-01-17T17:56:12.960Z,9.73
2023-01-17T17:58:59.544Z,8.77
2023-01-17T18:01:46.149Z,10.07
2023-01-17T18:04:31.680Z,9.10
2023-01-17T18:07:17.122Z,9.60
2023-01-17T18:10:03.746Z,9.63
2023-01-17T18:12:49.463Z,8.53
2023-01-17T18:15:35.021Z,9.23
2023-01-17T18:18:54.725Z,8.47
2023-01-17T18:21:44.330Z,8.30
2023-01-17T18:24:30.364Z,8.43
2023-01-17T18:27:16.715Z,8.77
2023-01-17T18:30:04.699Z,8.90
2023-01-17T18:32:52.514Z,8.53
2023-01-17T18:35:39.717Z,8.37
2023-01-17T18:38:29.297Z,7.70
2023-01-17T18:41:25.840Z,7.70
2023-01-17T18:44:13.961Z,8.33
2023-01-17T18:47:08.323Z,8.33
2023-01-17T18:49:54.445Z,7.60
2023-01-17T18:52:40.067Z,8.33
2023-01-17T18:55:25.343Z,7.37
2023-01-17T18:58:12.433Z,7.00
2023-01-17T19:01:20.700Z,6.63
2023-01-17T19:04:07.102Z,7.50
2023-01-17T19:06:53.518Z,7.30
2023-01-17T19:09:38.864Z,7.27
2023-01-17T19:12:25.205Z,7.17
2023-01-17T19:15:10.671Z,7.50
2023-01-17T19:17:56.659Z,6.97
2023-01-17T19:20:42.453Z,6.77
2023-01-17T19:23:28.555Z,6.87
2023-01-17T19:26:20.052Z,6.57
2023-01-17T19:29:07.339Z,6.80
2023-01-17T19:31:53.771Z,6.50
2023-01-17T19:34:40.238Z,6.37
2023-01-17T19:37:27.878Z,5.77
2023-01-17T19:40:15.366Z,6.53
2023-01-17T19:43:01.918Z,6.67
2023-01-17T19:45:59.178Z,6.10
2023-01-17T19:48:45.147Z,5.90
2023-01-17T19:51:31.035Z,5.87
2023-01-17T19:54:17.117Z,6.17
2023-01-17T19:57:02.835Z,6.07
2023-01-17T19:59:49.243Z,6.03
2023-01-17T20:02:35.937Z,5.70
2023-01-17T20:05:21.217Z,5.83
2023-01-17T20:08:06.792Z,5.80
2023-01-17T20:10:52.459Z,6.30
2023-01-17T20:13:37.652Z,6.00
2023-01-17T20:16:25.211Z,6.27
2023-01-17T20:19:10.601Z,5.73
2023-01-17T20:21:55.749Z,5.70
2023-01-17T20:24:41.068Z,6.10
2023-01-17T20:27:26.701Z,5.50
2023-01-17T20:30:20.084Z,5.23
2023-01-17T20:33:05.911Z,5.67
2023-01-17T20:36:08.772Z,5.80
2023-01-17T20:38:57.119Z,5.33
2023-01-17T20:41:45.548Z,5.33
2023-01-17T20:44:32.782Z,5.50
2023-01-17T20:47:18.269Z,5.40
2023-01-17T20:50:05.452Z,5.27
2023-01-17T20:52:51.307Z,4.97
2023-01-17T20:55:37.387Z,5.27
2023-01-17T20:58:22.898Z,5.00
2023-01-17T21:01:11.043Z,5.30
2023-01-17T21:03:56.611Z,5.30
2023-01-17T21:06:42.983Z,5.47
2023-01-17T21:09:28.591Z,5.63
2023-01-17T21:12:15.989Z,5.20
2023-01-17T21:15:01.465Z,4.87
2023-01-17T21:17:46.969Z,5.00
2023-01-17T21:20:34.687Z,4.87
2023-01-17T21:23:20.234Z,5.07
2023-01-17T21:26:07.868Z,4.90
2023-01-17T21:28:54.215Z,4.77
2023-01-17T21:31:40.947Z,5.43
2023-01-17T21:34:27.669Z,4.30
2023-01-17T21:37:13.255Z,4.63
2023-01-17T21:40:00.311Z,5.00
2023-01-17T21:42:45.666Z,4.73
2023-01-17T21:45:31.968Z,5.03
2023-01-17T21:48:17.281Z,4.43
2023-01-17T21:51:07.105Z,4.27
2023-01-17T21:53:52.255Z,5.03
2023-01-17T21:56:55.986Z,4.43
2023-01-17T22:02:26.539Z,4.33
2023-01-17T22:05:12.428Z,4.30
2023-01-17T22:08:12.637Z,4.43
2023-01-17T22:11:03.353Z,4.33
2023-01-17T22:13:49.455Z,4.50
2023-01-17T22:16:34.690Z,4.73
2023-01-17T22:19:20.098Z,4.53
2023-01-17T22:22:05.342Z,4.43
2023-01-17T22:24:50.538Z,4.17
2023-01-17T22:27:35.869Z,4.20
2023-01-17T22:30:21.227Z,4.37
2023-01-17T22:33:06.604Z,4.30
2023-01-17T22:35:59.076Z,4.17
2023-01-17T22:38:44.730Z,4.00
2023-01-17T22:41:31.221Z,3.87
2023-01-17T22:44:16.616Z,3.77
2023-01-17T22:47:02.046Z,4.17
2023-01-17T22:49:47.319Z,4.20
2023-01-17T22:52:32.967Z,3.70
2023-01-17T22:55:19.293Z,4.13
2023-01-17T22:58:04.792Z,4.13
2023-01-17T23:00:51.034Z,3.90
2023-01-17T23:03:36.811Z,3.77
2023-01-17T23:06:28.269Z,3.83
2023-01-17T23:09:15.452Z,3.60
2023-01-17T23:12:00.837Z,4.03
2023-01-17T23:15:04.887Z,3.87
2023-01-17T23:18:08.648Z,3.57
2023-01-17T23:23:39.175Z,3.50
2023-01-17T23:26:24.524Z,3.97
2023-01-17T23:29:09.849Z,3.63
2023-01-17T23:31:55.192Z,3.60
2023-01-17T23:34:40.433Z,3.67
2023-01-17T23:37:50.451Z,3.63
2023-01-17T23:40:37.303Z,3.67
2023-01-17T23:43:25.383Z,3.63
2023-01-17T23:46:12.216Z,3.80
2023-01-17T23:48:57.670Z,3.73
2023-01-17T23:51:43.215Z,3.63
2023-01-17T23:54:28.479Z,3.60
2023-01-17T23:57:13.699Z,3.20
2023-01-17T23:59:58.974Z,3.43
